createdAt,value
2023-03-03T00:01:28.557Z,47.37
2023-03-03T00:04:13.852Z,47.93
2023-03-03T00:06:59.300Z,55.23
2023-03-03T00:09:44.850Z,50.37
2023-03-03T00:12:31.265Z,59.50
2023-03-03T00:15:20.613Z,56.00
2023-03-03T00:18:17.798Z,54.97
2023-03-03T00:21:14.718Z,46.90
2023-03-03T00:24:18.921Z,46.67
2023-03-03T00:27:23.519Z,47.27
2023-03-03T00:30:24.181Z,47.17
2023-03-03T00:33:33.023Z,50.17
2023-03-03T00:36:37.730Z,50.10
2023-03-03T00:39:39.146Z,50.63
2023-03-03T00:42:27.282Z,49.37
2023-03-03T00:45:42.999Z,49.47
2023-03-03T00:48:41.270Z,51.87
2023-03-03T00:51:28.138Z,44.20
2023-03-03T00:54:13.538Z,52.33
2023-03-03T00:56:59.231Z,47.60
2023-03-03T00:59:44.913Z,52.87
2023-03-03T01:02:31.157Z,47.90
2023-03-03T01:05:18.353Z,48.97
2023-03-03T01:08:04.523Z,44.40
2023-03-03T01:10:53.228Z,45.00
2023-03-03T01:13:41.789Z,47.67
2023-03-03T01:16:27.374Z,51.47
2023-03-03T01:19:12.820Z,50.27
2023-03-03T01:21:58.881Z,51.60
2023-03-03T01:24:44.559Z,50.57
2023-03-03T01:27:31.179Z,45.83
2023-03-03T01:30:16.976Z,47.80
2023-03-03T01:33:02.567Z,45.53
2023-03-03T01:35:48.702Z,54.13
2023-03-03T01:38:38.055Z,48.77
2023-03-03T01:41:23.296Z,53.13
2023-03-03T01:44:14.486Z,50.83
2023-03-03T01:47:27.348Z,51.57
2023-03-03T01:50:18.881Z,56.67
2023-03-03T01:53:07.049Z,55.50
2023-03-03T01:55:53.580Z,50.77
2023-03-03T01:58:46.304Z,51.60
2023-03-03T02:01:34.046Z,54.50
2023-03-03T02:04:19.776Z,56.40
2023-03-03T02:07:11.660Z,41.90
2023-03-03T02:10:04.209Z,44.97
2023-03-03T02:12:57.689Z,48.67
2023-03-03T02:15:43.209Z,44.43
2023-03-03T02:18:29.688Z,41.83
2023-03-03T02:21:19.185Z,46.60
2023-03-03T02:24:25.610Z,49.77
2023-03-03T02:27:11.410Z,55.70
2023-03-03T02:29:56.716Z,57.47
2023-03-03T02:32:41.919Z,51.07
2023-03-03T02:35:33.861Z,52.60
2023-03-03T02:38:43.712Z,48.97
2023-03-03T02:42:14.376Z,46.17
2023-03-03T02:44:59.958Z,47.67
2023-03-03T02:47:52.072Z,49.60
2023-03-03T02:50:37.692Z,48.70
2023-03-03T02:53:23.184Z,45.60
2023-03-03T02:56:09.626Z,50.07
2023-03-03T02:58:55.678Z,51.50
2023-03-03T03:01:41.891Z,49.07
2023-03-03T03:04:28.079Z,49.60
2023-03-03T03:07:13.285Z,46.30
2023-03-03T03:09:58.924Z,48.10
2023-03-03T03:12:44.251Z,48.13
2023-03-03T03:15:29.601Z,52.50
2023-03-03T03:18:16.489Z,50.27
2023-03-03T03:21:19.947Z,46.67
2023-03-03T03:24:05.845Z,52.73
2023-03-03T03:26:51.190Z,47.70
2023-03-03T03:29:36.876Z,50.90
2023-03-03T03:32:22.297Z,56.07
2023-03-03T03:35:07.629Z,53.73
2023-03-03T03:37:53.036Z,48.67
2023-03-03T03:40:38.282Z,49.77
2023-03-03T03:43:23.896Z,54.37
2023-03-03T03:46:09.142Z,50.13
2023-03-03T03:48:54.631Z,51.47
2023-03-03T03:51:42.010Z,53.10
2023-03-03T03:54:27.473Z,54.17
2023-03-03T03:57:12.925Z,52.23
2023-03-03T03:59:58.257Z,59.30
2023-03-03T04:02:43.766Z,50.10
2023-03-03T04:05:29.396Z,51.90
2023-03-03T04:08:14.732Z,45.87
2023-03-03T04:10:59.917Z,47.17
2023-03-03T04:13:45.407Z,52.37
2023-03-03T04:16:31.011Z,48.93
2023-03-03T04:19:16.366Z,51.10
2023-03-03T04:22:01.928Z,50.87
2023-03-03T04:24:48.697Z,50.23
2023-03-03T04:27:35.808Z,55.70
2023-03-03T04:30:21.559Z,54.13
2023-03-03T04:33:07.149Z,54.70
2023-03-03T04:35:52.607Z,49.60
2023-03-03T04:38:38.340Z,50.97
2023-03-03T04:41:23.652Z,53.40
2023-03-03T04:44:08.943Z,48.20
2023-03-03T04:46:54.510Z,47.50
2023-03-03T04:49:39.658Z,47.83
2023-03-03T04:52:25.468Z,51.20
2023-03-03T04:55:11.165Z,45.87
2023-03-03T04:57:56.661Z,51.63
2023-03-03T05:00:41.904Z,49.70
2023-03-03T05:03:27.613Z,42.80
2023-03-03T05:06:12.871Z,50.20
2023-03-03T05:08:58.535Z,48.10
2023-03-03T05:11:44.216Z,50.37
2023-03-03T05:14:29.612Z,50.93
2023-03-03T05:17:15.093Z,50.20
2023-03-03T05:20:00.766Z,49.77
2023-03-03T05:22:46.248Z,55.63
2023-03-03T05:25:31.660Z,48.87
2023-03-03T05:28:17.828Z,56.23
2023-03-03T05:31:03.052Z,48.60
2023-03-03T05:33:48.638Z,50.40
2023-03-03T05:36:34.197Z,51.80
2023-03-03T05:39:19.681Z,47.97
2023-03-03T05:42:05.498Z,51.80
2023-03-03T05:44:50.724Z,53.37
2023-03-03T05:47:36.437Z,48.00
2023-03-03T05:50:23.109Z,57.83
2023-03-03T05:53:08.463Z,55.43
2023-03-03T05:55:54.191Z,48.57
2023-03-03T05:58:39.372Z,52.27
2023-03-03T06:01:24.942Z,55.50
2023-03-03T06:04:10.849Z,54.03
2023-03-03T06:06:56.429Z,52.83
2023-03-03T06:09:41.951Z,46.77
2023-03-03T06:12:27.522Z,49.13
2023-03-03T06:15:13.295Z,49.40
2023-03-03T06:17:58.497Z,59.13
2023-03-03T06:20:44.198Z,54.73
2023-03-03T06:23:29.721Z,50.27
2023-03-03T06:26:14.943Z,51.17
2023-03-03T06:29:01.149Z,56.37
2023-03-03T06:31:46.784Z,50.97
2023-03-03T06:34:32.420Z,49.67
2023-03-03T06:37:18.112Z,55.83
2023-03-03T06:40:05.199Z,51.17
2023-03-03T06:42:50.520Z,50.03
2023-03-03T06:45:36.121Z,50.83
2023-03-03T06:48:21.674Z,59.70
2023-03-03T06:51:26.829Z,56.20
2023-03-03T06:54:30.351Z,47.65
2023-03-03T06:57:33.409Z,56.23
2023-03-03T07:00:30.730Z,54.67
2023-03-03T07:03:18.828Z,50.03
2023-03-03T07:06:21.084Z,54.43
2023-03-03T07:09:24.146Z,54.90
2023-03-03T07:12:22.604Z,56.47
2023-03-03T07:15:20.478Z,59.70
2023-03-03T07:18:35.453Z,63.63
2023-03-03T07:21:22.647Z,65.40
2023-03-03T07:24:14.190Z,60.67
2023-03-03T07:27:29.247Z,51.47
2023-03-03T07:30:27.610Z,52.28
2023-03-03T07:33:42.946Z,54.93
2023-03-03T07:36:34.671Z,51.00
2023-03-03T07:39:31.215Z,59.07
2023-03-03T07:42:42.194Z,50.97
2023-03-03T07:45:34.979Z,52.80
2023-03-03T07:48:41.964Z,52.53
2023-03-03T07:51:33.263Z,59.67
2023-03-03T07:54:43.519Z,57.03
2023-03-03T07:57:37.367Z,68.87
2023-03-03T08:00:29.249Z,53.97
2023-03-03T08:03:20.816Z,52.10
2023-03-03T08:06:35.642Z,54.50
2023-03-03T08:09:35.622Z,54.92
2023-03-03T08:12:33.907Z,51.10
2023-03-03T08:15:28.319Z,55.63
2023-03-03T08:18:37.531Z,51.75
2023-03-03T08:21:25.155Z,59.40
2023-03-03T08:24:10.457Z,62.53
2023-03-03T08:26:56.078Z,60.37
2023-03-03T08:29:41.443Z,62.50
2023-03-03T08:32:27.033Z,56.60
2023-03-03T08:35:12.428Z,58.20
2023-03-03T08:37:57.953Z,50.77
2023-03-03T08:40:43.652Z,54.77
2023-03-03T08:43:29.747Z,56.43
2023-03-03T08:46:15.019Z,57.57
2023-03-03T08:49:00.668Z,59.70
2023-03-03T08:51:46.198Z,56.57
2023-03-03T08:54:32.635Z,58.67
2023-03-03T08:57:18.848Z,63.30
2023-03-03T09:00:04.326Z,60.87
2023-03-03T09:02:51.019Z,64.23
2023-03-03T09:05:38.763Z,60.37
2023-03-03T09:08:24.414Z,62.27
2023-03-03T09:11:14.299Z,53.43
2023-03-03T09:14:17.943Z,56.47
2023-03-03T09:17:28.628Z,57.03
2023-03-03T09:20:36.227Z,53.40
2023-03-03T09:23:37.700Z,57.57
2023-03-03T09:26:32.202Z,55.80
2023-03-03T09:29:25.716Z,59.38
2023-03-03T09:32:39.257Z,55.27
2023-03-03T09:35:40.409Z,57.43
2023-03-03T09:38:31.616Z,56.10
2023-03-03T09:41:25.559Z,57.80
2023-03-03T09:44:12.162Z,55.10
2023-03-03T09:47:16.637Z,56.33
2023-03-03T09:50:07.625Z,56.55
2023-03-03T09:52:53.752Z,58.97
2023-03-03T09:56:03.957Z,52.97
2023-03-03T09:59:13.108Z,52.27
2023-03-03T10:02:37.712Z,52.77
2023-03-03T10:05:50.850Z,51.50
2023-03-03T10:08:59.195Z,46.40
2023-03-03T10:11:57.739Z,51.53
2023-03-03T10:15:01.949Z,58.00
2023-03-03T10:17:55.035Z,53.47
2023-03-03T10:21:02.322Z,60.83
2023-03-03T10:24:00.316Z,52.50
2023-03-03T10:27:12.334Z,54.47
2023-03-03T10:30:44.073Z,54.30
2023-03-03T10:33:48.620Z,56.10
2023-03-03T10:36:34.271Z,59.20
2023-03-03T10:39:45.735Z,56.10
2023-03-03T10:42:55.238Z,53.80
2023-03-03T10:46:07.544Z,52.93
2023-03-03T10:49:16.878Z,52.17
2023-03-03T10:52:17.183Z,51.03
2023-03-03T10:55:21.411Z,51.50
2023-03-03T10:58:42.197Z,54.00
2023-03-03T11:01:40.638Z,49.03
2023-03-03T11:04:35.120Z,55.10
2023-03-03T11:07:28.990Z,56.30
2023-03-03T11:10:20.357Z,47.42
2023-03-03T11:13:16.008Z,50.60
2023-03-03T11:16:19.715Z,51.40
2023-03-03T11:19:34.492Z,47.30
2023-03-03T11:22:34.156Z,53.47
2023-03-03T11:25:47.951Z,44.43
2023-03-03T11:29:03.553Z,47.07
2023-03-03T11:31:56.747Z,50.77
2023-03-03T11:34:52.776Z,47.37
2023-03-03T11:37:38.167Z,50.67
2023-03-03T11:40:50.918Z,46.67
2023-03-03T11:44:23.817Z,46.93
2023-03-03T11:47:23.315Z,45.53
2023-03-03T11:50:13.632Z,50.93
2023-03-03T11:53:29.336Z,48.27
2023-03-03T11:59:31.854Z,45.47
2023-03-03T12:02:30.411Z,48.33
2023-03-03T12:05:40.815Z,45.80
2023-03-03T12:08:39.879Z,45.23
2023-03-03T12:11:25.340Z,46.53
2023-03-03T12:14:28.627Z,45.47
2023-03-03T12:17:25.799Z,43.77
2023-03-03T12:21:02.688Z,46.43
2023-03-03T12:24:05.712Z,44.20
2023-03-03T12:27:15.998Z,45.97
2023-03-03T12:30:13.618Z,44.70
2023-03-03T12:33:22.414Z,46.85
2023-03-03T12:36:32.416Z,43.78
2023-03-03T12:39:42.368Z,43.90
2023-03-03T12:42:55.043Z,44.83
2023-03-03T12:45:58.512Z,45.30
2023-03-03T12:48:45.716Z,48.35
2023-03-03T12:51:43.436Z,46.83
2023-03-03T12:55:00.746Z,44.35
2023-03-03T12:57:51.855Z,44.83
2023-03-03T13:00:59.434Z,43.35
2023-03-03T13:04:05.696Z,51.38
2023-03-03T13:06:59.220Z,47.80
2023-03-03T13:10:13.234Z,47.03
2023-03-03T13:13:16.734Z,49.38
2023-03-03T13:16:10.130Z,51.33
2023-03-03T13:19:11.760Z,44.40
2023-03-03T13:22:08.553Z,48.55
2023-03-03T13:25:18.567Z,47.85
2023-03-03T13:28:17.868Z,47.75
2023-03-03T13:31:20.715Z,46.58
2023-03-03T13:34:09.026Z,42.72
2023-03-03T13:37:04.381Z,48.20
2023-03-03T13:39:58.917Z,44.22
2023-03-03T13:42:49.878Z,42.33
2023-03-03T13:45:45.509Z,44.38
2023-03-03T13:48:46.325Z,44.30
2023-03-03T13:51:49.370Z,45.78
2023-03-03T13:54:56.348Z,45.08
2023-03-03T13:57:54.963Z,45.40
2023-03-03T14:01:05.558Z,43.72
2023-03-03T14:04:09.951Z,40.88
2023-03-03T14:07:03.267Z,40.83
2023-03-03T14:10:15.177Z,38.60
2023-03-03T14:13:04.490Z,42.25
2023-03-03T14:16:03.774Z,37.55
2023-03-03T14:18:57.670Z,40.50
2023-03-03T14:22:06.543Z,35.00
2023-03-03T14:25:00.298Z,37.25
2023-03-03T14:27:48.898Z,38.08
2023-03-03T14:30:44.836Z,36.15
2023-03-03T14:33:32.274Z,32.47
2023-03-03T14:36:30.171Z,40.35
2023-03-03T14:39:37.842Z,39.75
2023-03-03T14:42:33.794Z,38.92
2023-03-03T14:45:30.238Z,38.30
2023-03-03T14:48:19.117Z,38.90
2023-03-03T14:51:27.224Z,41.33
2023-03-03T14:54:28.320Z,41.17
2023-03-03T14:57:18.029Z,39.97
2023-03-03T15:00:28.591Z,41.75
2023-03-03T15:03:28.024Z,43.08
2023-03-03T15:06:27.011Z,40.10
2023-03-03T15:09:26.852Z,38.20
2023-03-03T15:12:36.588Z,41.55
2023-03-03T15:15:25.410Z,41.63
2023-03-03T15:18:13.453Z,38.60
2023-03-03T15:21:10.397Z,40.95
2023-03-03T15:23:59.193Z,39.55
2023-03-03T15:27:00.127Z,38.95
2023-03-03T15:30:02.145Z,41.00
2023-03-03T15:32:58.078Z,40.78
2023-03-03T15:36:23.219Z,43.10
2023-03-03T15:39:26.517Z,42.45
2023-03-03T15:42:18.450Z,40.10
2023-03-03T15:45:16.022Z,42.22
2023-03-03T15:48:35.958Z,44.22
2023-03-03T15:52:02.177Z,41.00
2023-03-03T15:54:57.323Z,42.72
2023-03-03T15:57:45.595Z,45.10
2023-03-03T16:00:50.168Z,43.58
2023-03-03T16:03:40.774Z,43.93
2023-03-03T16:06:37.233Z,46.50
2023-03-03T16:09:47.442Z,46.33
2023-03-03T16:12:45.767Z,43.72
2023-03-03T16:15:42.968Z,45.40
2023-03-03T16:19:01.866Z,46.35
2023-03-03T16:22:14.254Z,46.13
2023-03-03T16:25:21.885Z,53.88
2023-03-03T16:28:32.878Z,51.25
2023-03-03T16:31:38.347Z,47.90
2023-03-03T16:34:36.303Z,47.03
2023-03-03T16:37:32.757Z,43.08
2023-03-03T16:40:27.000Z,48.92
2023-03-03T16:43:32.557Z,45.15
2023-03-03T16:46:32.991Z,48.15
2023-03-03T16:49:40.310Z,49.03
2023-03-03T16:52:33.866Z,45.60
2023-03-03T16:55:25.293Z,48.72
2023-03-03T16:58:30.222Z,47.47
2023-03-03T17:01:30.925Z,49.10
2023-03-03T17:04:39.628Z,51.30
2023-03-03T17:07:44.739Z,47.47
2023-03-03T17:13:24.032Z,47.35
2023-03-03T17:16:49.854Z,51.72
2023-03-03T17:20:06.569Z,46.60
2023-03-03T17:23:21.143Z,52.35
2023-03-03T17:26:25.239Z,53.20
2023-03-03T17:29:32.864Z,57.60
2023-03-03T17:32:43.087Z,46.33
2023-03-03T17:35:46.008Z,45.42
2023-03-03T17:38:57.627Z,50.92
2023-03-03T17:41:55.090Z,49.70
2023-03-03T17:45:01.504Z,47.72
2023-03-03T17:47:55.861Z,49.13
2023-03-03T17:51:07.756Z,44.53
2023-03-03T17:54:12.871Z,47.20
2023-03-03T17:57:21.334Z,47.17
2023-03-03T18:00:31.606Z,55.90
2023-03-03T18:03:52.768Z,44.90
2023-03-03T18:06:58.566Z,47.97
2023-03-03T18:10:09.796Z,52.47
2023-03-03T18:13:08.020Z,47.93
2023-03-03T18:16:11.186Z,50.90
2023-03-03T18:19:18.010Z,50.87
2023-03-03T18:22:18.780Z,49.80
2023-03-03T18:25:17.885Z,46.03
2023-03-03T18:28:03.903Z,51.47
2023-03-03T18:30:59.311Z,56.80
2023-03-03T18:34:26.603Z,56.13
2023-03-03T18:37:38.840Z,48.20
2023-03-03T18:40:33.322Z,48.67
2023-03-03T18:43:40.494Z,56.58
2023-03-03T18:46:26.043Z,42.67
2023-03-03T18:49:12.999Z,47.43
2023-03-03T18:52:22.526Z,49.57
2023-03-03T18:55:11.094Z,42.03
2023-03-03T18:58:36.431Z,44.43
2023-03-03T19:01:48.626Z,41.95
2023-03-03T19:04:37.426Z,38.67
2023-03-03T19:07:49.149Z,42.17
2023-03-03T19:10:43.693Z,48.70
2023-03-03T19:13:35.103Z,47.45
2023-03-03T19:16:23.812Z,49.83
2023-03-03T19:19:17.732Z,49.90
2023-03-03T19:22:26.358Z,49.15
2023-03-03T19:25:25.791Z,43.70
2023-03-03T19:28:32.097Z,46.33
2023-03-03T19:31:39.710Z,40.90
2023-03-03T19:34:54.571Z,47.63
2023-03-03T19:37:58.331Z,42.70
2023-03-03T19:41:09.795Z,49.57
2023-03-03T19:44:09.982Z,47.30
2023-03-03T19:46:55.154Z,53.40
2023-03-03T19:50:12.560Z,52.27
2023-03-03T19:53:16.965Z,45.20
2023-03-03T19:56:23.780Z,42.60
2023-03-03T19:59:24.147Z,49.80
2023-03-03T20:02:31.556Z,43.07
2023-03-03T20:05:21.392Z,48.23
2023-03-03T20:08:19.588Z,49.00
2023-03-03T20:11:13.125Z,46.73
2023-03-03T20:14:18.889Z,48.00
2023-03-03T20:17:35.745Z,51.70
2023-03-03T20:20:47.045Z,44.23
2023-03-03T20:23:58.152Z,45.80
2023-03-03T20:27:17.748Z,49.97
2023-03-03T20:30:36.162Z,50.37
2023-03-03T20:33:36.785Z,45.33
2023-03-03T20:36:58.084Z,48.57
2023-03-03T20:39:58.019Z,51.07
2023-03-03T20:42:58.060Z,51.00
2023-03-03T20:46:08.275Z,46.83
2023-03-03T20:49:12.865Z,51.47
2023-03-03T20:52:03.796Z,50.60
2023-03-03T20:55:04.165Z,50.00
2023-03-03T20:58:13.876Z,50.53
2023-03-03T21:01:21.458Z,47.40
2023-03-03T21:04:27.276Z,47.10
2023-03-03T21:07:26.521Z,52.63
2023-03-03T21:10:16.628Z,51.27
2023-03-03T21:13:37.201Z,52.03
2023-03-03T21:16:25.601Z,46.07
2023-03-03T21:19:12.949Z,46.60
2023-03-03T21:22:02.110Z,51.07
2023-03-03T21:24:57.577Z,50.10
2023-03-03T21:30:28.765Z,43.47
2023-03-03T21:33:39.997Z,50.17
2023-03-03T21:36:46.583Z,54.60
2023-03-03T21:39:33.218Z,50.17
2023-03-03T21:42:39.884Z,52.10
2023-03-03T21:45:25.922Z,51.27
2023-03-03T21:48:11.237Z,55.03
2023-03-03T21:50:57.021Z,53.83
2023-03-03T21:53:44.241Z,54.50
2023-03-03T21:56:29.733Z,46.00
2023-03-03T21:59:15.361Z,45.63
2023-03-03T22:02:00.748Z,54.07
2023-03-03T22:04:46.392Z,50.70
2023-03-03T22:07:32.119Z,47.47
2023-03-03T22:10:17.823Z,52.87
2023-03-03T22:13:03.043Z,48.87
2023-03-03T22:15:49.122Z,48.10
2023-03-03T22:18:34.397Z,51.03
2023-03-03T22:21:19.593Z,50.97
2023-03-03T22:24:06.694Z,55.57
2023-03-03T22:26:52.229Z,45.27
2023-03-03T22:29:37.503Z,52.83
2023-03-03T22:32:23.032Z,57.27
2023-03-03T22:35:09.099Z,58.07
2023-03-03T22:37:54.671Z,59.00
2023-03-03T22:40:39.928Z,58.27
2023-03-03T22:43:25.848Z,51.97
2023-03-03T22:46:11.815Z,51.23
2023-03-03T22:48:56.942Z,60.10
2023-03-03T22:51:42.235Z,55.00
2023-03-03T22:54:27.627Z,52.80
2023-03-03T22:57:13.306Z,48.57
2023-03-03T23:00:00.113Z,53.03
2023-03-03T23:02:45.314Z,50.10
2023-03-03T23:05:30.930Z,48.80
2023-03-03T23:08:18.624Z,54.53
2023-03-03T23:11:05.076Z,52.63
2023-03-03T23:13:50.582Z,52.40
2023-03-03T23:16:35.921Z,46.60
2023-03-03T23:19:21.585Z,49.70
2023-03-03T23:22:07.042Z,50.10
2023-03-03T23:24:52.882Z,50.20
2023-03-03T23:27:38.303Z,51.40
2023-03-03T23:30:24.002Z,52.33
2023-03-03T23:33:09.734Z,50.90
2023-03-03T23:35:55.074Z,61.10
2023-03-03T23:38:42.965Z,51.10
2023-03-03T23:41:28.905Z,50.20
2023-03-03T23:44:14.412Z,46.97
2023-03-03T23:46:59.740Z,56.60
2023-03-03T23:49:45.509Z,56.67
2023-03-03T23:52:30.796Z,52.50
2023-03-03T23:55:16.589Z,55.63
2023-03-03T23:58:01.819Z,56.67
